sensor_id;sensor_type;location;lat;lon;timestamp;P1;durP1;ratioP1;P2;durP2;ratioP2
70075;SDS011;63241;51.056;3.698;2022-12-18T00:01:25;270.48;;;115.35;;
70075;SDS011;63241;51.056;3.698;2022-12-18T00:10:10;112.17;;;59.27;;
70075;SDS011;63241;51.056;3.698;2022-12-18T00:12:38;161.82;;;89.13;;
70075;SDS011;63241;51.056;3.698;2022-12-18T00:15:06;106.22;;;59.03;;
70075;SDS011;63241;51.056;3.698;2022-12-18T00:23:55;100.47;;;53.78;;
70075;SDS011;63241;51.056;3.698;2022-12-18T00:26:28;114.52;;;55.35;;
70075;SDS011;63241;51.056;3.698;2022-12-18T00:28:55;114.55;;;56.10;;
70075;SDS011;63241;51.056;3.698;2022-12-18T00:34:54;103.55;;;50.78;;
70075;SDS011;63241;51.056;3.698;2022-12-18T00:37:22;102.92;;;50.10;;
70075;SDS011;63241;51.056;3.698;2022-12-18T00:39:50;98.85;;;49.55;;
70075;SDS011;63241;51.056;3.698;2022-12-18T00:42:18;98.45;;;48.28;;
70075;SDS011;63241;51.056;3.698;2022-12-18T00:50:45;94.07;;;44.20;;
70075;SDS011;63241;51.056;3.698;2022-12-18T00:53:15;102.87;;;49.45;;
70075;SDS011;63241;51.056;3.698;2022-12-18T00:55:43;97.97;;;47.73;;
70075;SDS011;63241;51.056;3.698;2022-12-18T00:58:17;107.05;;;50.33;;
70075;SDS011;63241;51.056;3.698;2022-12-18T01:03:48;93.15;;;43.23;;
70075;SDS011;63241;51.056;3.698;2022-12-18T01:06:16;101.60;;;49.40;;
70075;SDS011;63241;51.056;3.698;2022-12-18T01:08:44;94.10;;;46.53;;
70075;SDS011;63241;51.056;3.698;2022-12-18T01:16:44;95.85;;;44.00;;
70075;SDS011;63241;51.056;3.698;2022-12-18T01:19:11;96.30;;;46.98;;
70075;SDS011;63241;51.056;3.698;2022-12-18T01:21:39;97.12;;;43.50;;
70075;SDS011;63241;51.056;3.698;2022-12-18T01:30:40;92.05;;;43.00;;
70075;SDS011;63241;51.056;3.698;2022-12-18T01:33:08;97.00;;;44.90;;
70075;SDS011;63241;51.056;3.698;2022-12-18T01:35:42;93.58;;;42.65;;
70075;SDS011;63241;51.056;3.698;2022-12-18T01:38:21;103.35;;;46.50;;
70075;SDS011;63241;51.056;3.698;2022-12-18T01:40:58;70.32;;;32.70;;
70075;SDS011;63241;51.056;3.698;2022-12-18T01:43:47;88.45;;;41.60;;
70075;SDS011;63241;51.056;3.698;2022-12-18T01:46:17;87.08;;;41.92;;
70075;SDS011;63241;51.056;3.698;2022-12-18T01:48:47;96.10;;;43.55;;
70075;SDS011;63241;51.056;3.698;2022-12-18T01:54:22;67.00;;;30.25;;
70075;SDS011;63241;51.056;3.698;2022-12-18T02:00:04;86.08;;;40.10;;
70075;SDS011;63241;51.056;3.698;2022-12-18T02:02:32;85.85;;;40.38;;
70075;SDS011;63241;51.056;3.698;2022-12-18T02:17:30;86.67;;;39.80;;
70075;SDS011;63241;51.056;3.698;2022-12-18T02:27:09;84.15;;;37.65;;
70075;SDS011;63241;51.056;3.698;2022-12-18T02:29:43;82.15;;;37.75;;
70075;SDS011;63241;51.056;3.698;2022-12-18T02:32:24;78.33;;;36.70;;
70075;SDS011;63241;51.056;3.698;2022-12-18T02:35:11;72.22;;;36.93;;
70075;SDS011;63241;51.056;3.698;2022-12-18T02:37:55;70.87;;;34.23;;
70075;SDS011;63241;51.056;3.698;2022-12-18T02:40:24;73.28;;;35.70;;
70075;SDS011;63241;51.056;3.698;2022-12-18T12:15:31;31.27;;;16.93;;
70075;SDS011;63241;51.056;3.698;2022-12-18T18:38:58;69.80;;;30.37;;
70075;SDS011;63241;51.056;3.698;2022-12-18T18:47:58;72.58;;;30.35;;
70075;SDS011;63241;51.056;3.698;2022-12-18T18:50:26;72.15;;;31.45;;
70075;SDS011;63241;51.056;3.698;2022-12-18T18:52:54;73.30;;;32.40;;
70075;SDS011;63241;51.056;3.698;2022-12-18T19:01:54;75.78;;;31.35;;
70075;SDS011;63241;51.056;3.698;2022-12-18T19:04:22;67.97;;;29.27;;
70075;SDS011;63241;51.056;3.698;2022-12-18T19:06:50;70.30;;;29.75;;
70075;SDS011;63241;51.056;3.698;2022-12-18T19:13:16;76.25;;;30.80;;
70075;SDS011;63241;51.056;3.698;2022-12-18T19:15:47;67.20;;;30.27;;
70075;SDS011;63241;51.056;3.698;2022-12-18T19:18:15;70.75;;;29.57;;
70075;SDS011;63241;51.056;3.698;2022-12-18T19:20:42;78.30;;;29.23;;
70075;SDS011;63241;51.056;3.698;2022-12-18T19:28:53;67.10;;;27.80;;
70075;SDS011;63241;51.056;3.698;2022-12-18T19:31:22;67.45;;;30.77;;
70075;SDS011;63241;51.056;3.698;2022-12-18T19:33:50;78.00;;;31.10;;
70075;SDS011;63241;51.056;3.698;2022-12-18T19:40:00;63.92;;;28.92;;
70075;SDS011;63241;51.056;3.698;2022-12-18T19:42:28;71.12;;;29.52;;
70075;SDS011;63241;51.056;3.698;2022-12-18T19:44:55;71.17;;;32.93;;
70075;SDS011;63241;51.056;3.698;2022-12-18T19:47:23;68.10;;;31.68;;
70075;SDS011;63241;51.056;3.698;2022-12-18T19:55:53;82.02;;;41.50;;
70075;SDS011;63241;51.056;3.698;2022-12-18T19:58:21;70.12;;;29.30;;
70075;SDS011;63241;51.056;3.698;2022-12-18T20:00:48;79.70;;;29.30;;
70075;SDS011;63241;51.056;3.698;2022-12-18T20:03:18;73.33;;;29.82;;
70075;SDS011;63241;51.056;3.698;2022-12-18T20:08:51;80.53;;;36.28;;
70075;SDS011;63241;51.056;3.698;2022-12-18T20:11:20;68.67;;;28.50;;
70075;SDS011;63241;51.056;3.698;2022-12-18T20:13:48;66.45;;;28.52;;
70075;SDS011;63241;51.056;3.698;2022-12-18T20:16:15;70.85;;;30.40;;
70075;SDS011;63241;51.056;3.698;2022-12-18T20:22:24;57.40;;;26.70;;
70075;SDS011;63241;51.056;3.698;2022-12-18T20:24:52;64.85;;;28.57;;
70075;SDS011;63241;51.056;3.698;2022-12-18T20:27:19;58.75;;;27.45;;
70075;SDS011;63241;51.056;3.698;2022-12-18T20:29:47;65.72;;;27.98;;
70075;SDS011;63241;51.056;3.698;2022-12-18T20:35:38;66.72;;;30.23;;
70075;SDS011;63241;51.056;3.698;2022-12-18T20:38:06;64.05;;;28.25;;
70075;SDS011;63241;51.056;3.698;2022-12-18T20:40:33;60.95;;;26.02;;
70075;SDS011;63241;51.056;3.698;2022-12-18T20:43:01;66.07;;;27.98;;
70075;SDS011;63241;51.056;3.698;2022-12-18T20:49:24;62.70;;;27.77;;
70075;SDS011;63241;51.056;3.698;2022-12-18T20:51:53;59.23;;;27.32;;
70075;SDS011;63241;51.056;3.698;2022-12-18T20:54:23;57.55;;;27.27;;
70075;SDS011;63241;51.056;3.698;2022-12-18T20:56:52;57.53;;;26.65;;
70075;SDS011;63241;51.056;3.698;2022-12-18T21:02:45;60.20;;;28.02;;
70075;SDS011;63241;51.056;3.698;2022-12-18T21:05:13;54.65;;;25.68;;
70075;SDS011;63241;51.056;3.698;2022-12-18T21:07:41;56.35;;;25.57;;
70075;SDS011;63241;51.056;3.698;2022-12-18T21:10:09;56.25;;;26.17;;
70075;SDS011;63241;51.056;3.698;2022-12-18T21:15:43;48.35;;;23.35;;
70075;SDS011;63241;51.056;3.698;2022-12-18T21:18:12;50.50;;;24.95;;
70075;SDS011;63241;51.056;3.698;2022-12-18T21:20:40;54.60;;;25.85;;
70075;SDS011;63241;51.056;3.698;2022-12-18T21:23:09;53.48;;;24.65;;
70075;SDS011;63241;51.056;3.698;2022-12-18T21:32:03;53.48;;;24.05;;
